createdAt,value
2022-11-05T00:01:53.876Z,9.27
2022-11-05T00:04:39.620Z,12.05
2022-11-05T00:10:03.818Z,10.18
2022-11-05T00:12:50.012Z,8.68
2022-11-05T00:15:35.913Z,12.05
2022-11-05T00:18:03.314Z,9.60
2022-11-05T00:20:30.539Z,12.73
2022-11-05T00:23:23.625Z,11.88
2022-11-05T00:25:54.876Z,11.40
2022-11-05T00:28:22.178Z,11.23
2022-11-05T00:30:49.510Z,12.85
2022-11-05T00:33:17.138Z,10.05
2022-11-05T00:35:44.365Z,12.07
2022-11-05T00:38:11.811Z,10.00
2022-11-05T00:40:39.446Z,16.75
2022-11-05T00:43:25.501Z,13.48
2022-11-05T00:45:52.692Z,11.63
2022-11-05T00:48:38.729Z,10.77
2022-11-05T00:51:06.070Z,10.07
2022-11-05T00:53:33.592Z,11.18
2022-11-05T00:56:00.789Z,11.38
2022-11-05T00:58:29.279Z,11.02
2022-11-05T01:01:00.531Z,9.43
2022-11-05T01:03:29.369Z,8.77
2022-11-05T01:05:57.988Z,11.82
2022-11-05T01:08:26.174Z,11.95
2022-11-05T01:10:57.657Z,9.95
2022-11-05T01:13:27.103Z,12.50
2022-11-05T01:15:54.840Z,9.30
2022-11-05T01:18:22.625Z,11.95
2022-11-05T01:20:50.035Z,8.90
2022-11-05T01:23:17.849Z,8.90
2022-11-05T01:25:45.918Z,12.85
2022-11-05T01:28:13.153Z,10.88
2022-11-05T01:30:40.423Z,12.48
2022-11-05T01:33:08.408Z,10.45
2022-11-05T01:35:35.883Z,11.40
2022-11-05T01:38:03.097Z,12.18
2022-11-05T01:40:30.495Z,11.40
2022-11-05T01:42:57.726Z,14.00
2022-11-05T01:45:25.114Z,12.82
2022-11-05T01:47:56.387Z,10.02
2022-11-05T01:50:29.664Z,13.45
2022-11-05T01:53:19.933Z,11.18
2022-11-05T01:55:49.467Z,9.63
2022-11-05T01:58:19.425Z,10.52
2022-11-05T02:00:46.841Z,11.40
2022-11-05T02:03:15.517Z,14.77
2022-11-05T02:05:43.126Z,11.13
2022-11-05T02:08:14.258Z,10.90
2022-11-05T02:10:43.343Z,10.45
2022-11-05T02:13:10.732Z,10.77
2022-11-05T02:15:47.233Z,10.32
2022-11-05T02:18:15.402Z,10.05
2022-11-05T02:20:52.022Z,8.65
2022-11-05T02:23:38.060Z,10.63
2022-11-05T02:26:05.271Z,10.57
2022-11-05T02:28:32.456Z,9.50
2022-11-05T02:31:18.837Z,8.75
2022-11-05T02:33:48.866Z,11.80
2022-11-05T02:36:21.978Z,10.10
2022-11-05T02:38:55.037Z,8.07
2022-11-05T02:41:31.450Z,7.45
2022-11-05T02:44:17.383Z,8.82
2022-11-05T02:46:44.896Z,7.45
2022-11-05T02:49:12.102Z,6.45
2022-11-05T02:51:59.145Z,7.75
2022-11-05T02:54:48.265Z,6.97
2022-11-05T02:57:15.665Z,7.55
2022-11-05T02:59:42.865Z,8.70
2022-11-05T03:02:10.489Z,6.82
2022-11-05T03:04:37.859Z,7.35
2022-11-05T03:07:08.259Z,6.18
2022-11-05T03:09:47.884Z,8.02
2022-11-05T03:12:18.136Z,9.82
2022-11-05T03:15:04.222Z,11.27
2022-11-05T03:17:39.796Z,9.45
2022-11-05T03:20:15.218Z,6.45
2022-11-05T03:22:44.673Z,7.20
2022-11-05T03:25:14.274Z,7.47
2022-11-05T03:27:44.045Z,6.72
2022-11-05T03:30:12.366Z,7.30
2022-11-05T03:32:41.781Z,8.02
2022-11-05T03:35:13.041Z,8.90
2022-11-05T03:37:42.608Z,7.65
2022-11-05T03:40:11.105Z,9.20
2022-11-05T03:42:39.871Z,8.05
2022-11-05T03:45:10.585Z,10.00
2022-11-05T03:47:39.181Z,8.27
2022-11-05T03:50:06.676Z,8.05
2022-11-05T03:52:40.827Z,7.78
2022-11-05T03:55:08.271Z,8.50
2022-11-05T03:57:38.190Z,8.07
2022-11-05T04:00:08.054Z,9.48
2022-11-05T04:02:35.384Z,8.75
2022-11-05T04:05:02.687Z,10.10
2022-11-05T04:07:48.816Z,8.50
2022-11-05T04:10:34.917Z,9.80
2022-11-05T04:13:20.882Z,8.70
2022-11-05T04:16:06.792Z,8.07
2022-11-05T04:18:34.557Z,11.13
2022-11-05T04:21:20.711Z,8.15
2022-11-05T04:24:06.857Z,9.45
2022-11-05T04:26:34.193Z,8.90
2022-11-05T04:29:20.409Z,11.00
2022-11-05T04:31:47.667Z,14.93
2022-11-05T04:34:16.287Z,12.63
2022-11-05T04:36:43.746Z,12.13
2022-11-05T04:39:10.996Z,14.85
2022-11-05T04:41:38.487Z,15.75
2022-11-05T04:44:05.971Z,14.93
2022-11-05T04:46:33.404Z,14.88
2022-11-05T04:49:00.797Z,18.80
2022-11-05T04:51:28.134Z,21.85
2022-11-05T04:53:55.548Z,23.30
2022-11-05T04:56:23.785Z,20.75
2022-11-05T04:58:51.510Z,20.40
2022-11-05T05:01:23.323Z,21.20
2022-11-05T05:03:51.789Z,20.55
2022-11-05T05:06:19.428Z,13.82
2022-11-05T05:08:50.527Z,16.08
2022-11-05T05:11:18.964Z,19.05
2022-11-05T05:13:46.620Z,15.43
2022-11-05T05:16:24.534Z,17.70
2022-11-05T05:18:52.075Z,27.55
2022-11-05T05:21:38.715Z,17.80
2022-11-05T05:24:08.955Z,17.40
2022-11-05T05:26:37.631Z,16.85
2022-11-05T05:29:05.991Z,18.77
2022-11-05T05:31:33.419Z,14.40
2022-11-05T05:34:00.802Z,15.73
2022-11-05T05:36:28.299Z,18.73
2022-11-05T05:38:55.666Z,16.75
2022-11-05T05:41:23.098Z,17.42
2022-11-05T05:43:50.807Z,20.65
2022-11-05T05:46:19.840Z,21.42
2022-11-05T05:48:51.180Z,15.30
2022-11-05T05:51:18.985Z,20.02
2022-11-05T05:53:46.536Z,18.85
2022-11-05T05:56:19.557Z,20.13
2022-11-05T05:58:47.539Z,23.98
2022-11-05T06:01:18.932Z,20.63
2022-11-05T06:03:47.557Z,21.30
2022-11-05T06:06:15.796Z,22.35
2022-11-05T06:08:43.453Z,23.67
2022-11-05T06:11:11.147Z,19.55
2022-11-05T06:13:38.811Z,19.15
2022-11-05T06:16:08.087Z,22.95
2022-11-05T06:18:35.442Z,20.77
2022-11-05T06:21:07.127Z,15.70
2022-11-05T06:23:35.110Z,17.33
2022-11-05T06:26:04.062Z,19.05
2022-11-05T06:28:31.365Z,16.98
2022-11-05T06:30:58.826Z,16.45
2022-11-05T06:33:27.011Z,18.77
2022-11-05T06:35:55.064Z,16.23
2022-11-05T06:38:22.472Z,15.35
2022-11-05T06:40:50.018Z,12.75
2022-11-05T06:43:17.382Z,13.90
2022-11-05T06:45:44.900Z,16.90
2022-11-05T06:48:12.217Z,21.55
2022-11-05T06:50:40.247Z,13.02
2022-11-05T06:53:07.639Z,12.75
2022-11-05T06:55:35.147Z,15.40
2022-11-05T06:58:02.487Z,17.20
2022-11-05T07:00:29.975Z,14.93
2022-11-05T07:03:03.897Z,17.10
2022-11-05T07:05:31.952Z,13.27
2022-11-05T07:07:59.310Z,16.38
2022-11-05T07:10:26.656Z,22.45
2022-11-05T07:12:54.093Z,24.30
2022-11-05T07:15:21.471Z,30.42
2022-11-05T07:17:48.804Z,16.08
2022-11-05T07:20:16.160Z,18.52
2022-11-05T07:22:43.559Z,15.32
2022-11-05T07:25:10.874Z,14.63
2022-11-05T07:27:39.722Z,14.13
2022-11-05T07:30:08.414Z,13.98
2022-11-05T07:32:39.922Z,14.82
2022-11-05T07:35:08.092Z,12.40
2022-11-05T07:37:48.921Z,16.60
2022-11-05T07:40:18.271Z,19.02
2022-11-05T07:42:46.748Z,12.38
2022-11-05T07:45:14.128Z,15.75
2022-11-05T07:47:48.989Z,21.67
2022-11-05T07:50:17.535Z,14.00
2022-11-05T07:52:45.044Z,18.67
2022-11-05T07:55:13.503Z,16.33
2022-11-05T07:57:42.385Z,16.00
2022-11-05T08:00:11.084Z,17.00
2022-11-05T08:02:38.590Z,15.02
2022-11-05T08:05:06.044Z,17.50
2022-11-05T08:07:33.690Z,21.17
2022-11-05T08:10:01.076Z,23.60
2022-11-05T08:12:28.457Z,25.63
2022-11-05T08:14:55.745Z,21.45
2022-11-05T08:17:23.098Z,23.70
2022-11-05T08:19:50.564Z,22.70
2022-11-05T08:22:18.015Z,24.27
2022-11-05T08:24:45.394Z,22.77
2022-11-05T08:27:12.917Z,21.13
2022-11-05T08:29:40.296Z,27.30
2022-11-05T08:32:07.646Z,20.20
2022-11-05T08:34:35.009Z,21.52
2022-11-05T08:37:02.949Z,21.42
2022-11-05T08:39:30.256Z,42.55
2022-11-05T08:41:57.805Z,20.63
2022-11-05T08:44:25.313Z,22.08
2022-11-05T08:46:52.788Z,19.20
2022-11-05T08:49:20.269Z,25.10
2022-11-05T08:51:47.656Z,22.05
2022-11-05T08:54:15.208Z,22.08
2022-11-05T08:56:42.592Z,18.75
2022-11-05T08:59:10.019Z,22.35
2022-11-05T09:01:37.781Z,18.60
2022-11-05T09:04:05.560Z,20.95
2022-11-05T09:06:32.917Z,21.90
2022-11-05T09:09:00.693Z,14.68
2022-11-05T09:11:49.651Z,16.60
2022-11-05T09:14:16.077Z,16.40
2022-11-05T09:16:43.414Z,15.23
2022-11-05T09:19:10.883Z,16.27
2022-11-05T09:21:41.042Z,18.85
2022-11-05T09:24:08.591Z,20.55
2022-11-05T09:26:35.984Z,20.58
2022-11-05T09:29:03.753Z,17.88
2022-11-05T09:31:31.178Z,18.60
2022-11-05T09:33:58.591Z,20.42
2022-11-05T09:36:25.966Z,20.58
2022-11-05T09:38:53.438Z,18.30
2022-11-05T09:41:23.820Z,15.50
2022-11-05T09:44:01.452Z,18.10
2022-11-05T09:46:30.840Z,19.63
2022-11-05T09:49:03.383Z,17.95
2022-11-05T09:51:31.252Z,20.15
2022-11-05T09:54:02.134Z,19.08
2022-11-05T09:56:31.175Z,17.77
2022-11-05T09:59:19.296Z,17.42
2022-11-05T10:01:47.567Z,21.70
2022-11-05T10:04:20.652Z,20.63
2022-11-05T10:06:50.403Z,19.80
2022-11-05T10:09:21.824Z,13.40
2022-11-05T10:11:52.755Z,15.25
2022-11-05T10:14:25.601Z,22.38
2022-11-05T10:16:55.964Z,17.88
2022-11-05T10:19:29.328Z,15.55
2022-11-05T10:22:11.828Z,18.08
2022-11-05T10:24:42.293Z,17.08
2022-11-05T10:27:11.996Z,19.17
2022-11-05T10:29:39.520Z,18.58
2022-11-05T10:32:07.545Z,12.20
2022-11-05T10:34:36.042Z,15.95
2022-11-05T10:37:03.805Z,13.85
2022-11-05T10:39:31.748Z,15.00
2022-11-05T10:42:02.112Z,12.80
2022-11-05T10:44:42.286Z,12.57
2022-11-05T10:47:28.444Z,13.57
2022-11-05T10:50:00.030Z,14.45
2022-11-05T10:52:36.656Z,14.18
2022-11-05T10:55:06.610Z,18.50
2022-11-05T10:57:34.154Z,14.15
2022-11-05T11:00:17.092Z,14.35
2022-11-05T11:03:04.512Z,12.88
2022-11-05T11:05:32.361Z,14.80
2022-11-05T11:08:12.255Z,11.75
2022-11-05T11:10:43.126Z,12.73
2022-11-05T11:13:20.448Z,11.95
2022-11-05T11:15:50.905Z,11.90
2022-11-05T11:18:27.512Z,11.63
2022-11-05T11:20:54.945Z,9.23
2022-11-05T11:23:23.510Z,8.88
2022-11-05T11:25:58.305Z,9.32
2022-11-05T11:28:29.738Z,6.50
2022-11-05T11:31:14.256Z,13.52
2022-11-05T11:33:43.574Z,8.80
2022-11-05T11:36:11.546Z,12.20
2022-11-05T11:38:39.408Z,8.43
2022-11-05T11:41:06.761Z,9.40
2022-11-05T11:43:35.494Z,8.25
2022-11-05T11:46:09.916Z,10.77
2022-11-05T11:48:41.223Z,9.15
2022-11-05T11:51:36.852Z,7.10
2022-11-05T11:54:05.158Z,10.30
2022-11-05T11:56:43.844Z,9.98
2022-11-05T11:59:16.379Z,7.97
2022-11-05T12:01:54.844Z,12.52
2022-11-05T12:04:44.550Z,14.43
2022-11-05T12:07:17.960Z,12.73
2022-11-05T12:09:59.016Z,9.10
2022-11-05T12:12:45.071Z,7.80
2022-11-05T12:15:12.628Z,8.18
2022-11-05T12:17:45.992Z,9.13
2022-11-05T12:20:13.538Z,8.65
2022-11-05T12:22:51.511Z,7.55
2022-11-05T12:25:21.972Z,9.05
2022-11-05T12:28:08.174Z,6.93
2022-11-05T12:30:41.092Z,9.00
2022-11-05T12:33:29.750Z,7.63
2022-11-05T12:36:03.538Z,8.70
2022-11-05T12:38:52.611Z,9.68
2022-11-05T12:41:26.711Z,8.77
2022-11-05T12:44:05.670Z,8.73
2022-11-05T12:46:39.324Z,6.47
2022-11-05T12:49:07.147Z,6.50
2022-11-05T12:51:40.936Z,7.00
2022-11-05T12:54:17.347Z,6.47
2022-11-05T12:56:45.194Z,11.18
2022-11-05T12:59:13.042Z,40.85
2022-11-05T13:01:45.728Z,7.15
2022-11-05T13:04:21.958Z,5.88
2022-11-05T13:06:52.629Z,6.30
2022-11-05T13:09:20.773Z,8.20
2022-11-05T13:11:54.015Z,8.18
2022-11-05T13:14:40.248Z,4.78
2022-11-05T13:17:14.208Z,4.93
2022-11-05T13:19:53.346Z,5.82
2022-11-05T13:22:38.300Z,6.80
2022-11-05T13:25:11.192Z,5.18
2022-11-05T13:27:44.119Z,4.60
2022-11-05T13:30:18.083Z,7.85
2022-11-05T13:32:49.300Z,5.30
2022-11-05T13:35:28.638Z,6.03
2022-11-05T13:38:17.059Z,6.25
2022-11-05T13:40:50.235Z,5.53
2022-11-05T13:43:23.242Z,6.70
2022-11-05T13:46:05.367Z,4.75
2022-11-05T13:48:33.360Z,4.95
2022-11-05T13:51:00.736Z,3.92
2022-11-05T13:53:43.975Z,6.93
2022-11-05T13:56:11.647Z,3.83
2022-11-05T13:58:51.945Z,4.07
2022-11-05T14:01:34.402Z,2.72
2022-11-05T14:04:02.111Z,5.82
2022-11-05T14:06:36.725Z,4.18
2022-11-05T14:09:12.434Z,7.38
2022-11-05T14:11:45.110Z,3.47
2022-11-05T14:14:19.236Z,3.03
2022-11-05T14:16:53.288Z,5.47
2022-11-05T14:19:20.689Z,4.40
2022-11-05T14:21:55.258Z,3.88
2022-11-05T14:24:22.697Z,4.18
2022-11-05T14:27:11.762Z,4.30
2022-11-05T14:29:45.371Z,5.75
2022-11-05T14:32:19.023Z,3.65
2022-11-05T14:34:54.958Z,3.00
2022-11-05T14:37:25.807Z,3.72
2022-11-05T14:39:54.781Z,3.83
2022-11-05T14:42:25.333Z,4.60
2022-11-05T14:45:11.595Z,3.10
2022-11-05T14:47:41.592Z,4.57
2022-11-05T14:50:11.925Z,4.28
2022-11-05T14:52:41.057Z,3.65
2022-11-05T14:55:24.135Z,6.28
2022-11-05T14:57:54.707Z,11.57
2022-11-05T15:00:40.980Z,6.22
2022-11-05T15:03:27.615Z,5.97
2022-11-05T15:06:04.709Z,2.85
2022-11-05T15:08:32.104Z,4.55
2022-11-05T15:11:19.740Z,6.47
2022-11-05T15:14:00.618Z,7.85
2022-11-05T15:16:34.317Z,10.02
2022-11-05T15:19:02.268Z,9.40
2022-11-05T15:21:33.139Z,8.07
2022-11-05T15:24:02.147Z,6.32
2022-11-05T15:26:37.677Z,6.13
2022-11-05T15:29:14.753Z,5.82
2022-11-05T15:31:43.454Z,7.05
2022-11-05T15:34:16.941Z,5.60
2022-11-05T15:37:03.631Z,7.82
2022-11-05T15:39:40.465Z,5.20
2022-11-05T15:42:16.956Z,3.03
2022-11-05T15:44:48.704Z,2.85
2022-11-05T15:47:23.696Z,6.53
2022-11-05T15:49:52.931Z,3.28
2022-11-05T15:52:21.692Z,2.88
2022-11-05T15:55:07.133Z,3.17
2022-11-05T15:57:39.297Z,4.22
2022-11-05T16:00:08.981Z,6.53
2022-11-05T16:02:37.456Z,4.65
2022-11-05T16:05:22.511Z,22.73
2022-11-05T16:07:52.330Z,3.50
2022-11-05T16:10:24.523Z,3.10
2022-11-05T16:12:51.941Z,2.63
2022-11-05T16:15:21.003Z,2.28
2022-11-05T16:17:53.175Z,5.50
2022-11-05T16:20:20.569Z,6.25
2022-11-05T16:22:49.216Z,4.30
2022-11-05T16:25:29.173Z,3.30
2022-11-05T16:27:57.656Z,2.25
2022-11-05T16:30:25.699Z,3.53
2022-11-05T16:32:53.522Z,2.20
2022-11-05T16:35:24.973Z,2.70
2022-11-05T16:37:52.956Z,3.83
2022-11-05T16:40:21.915Z,4.32
2022-11-05T16:42:51.612Z,2.53
2022-11-05T16:45:25.168Z,4.50
2022-11-05T16:47:55.655Z,3.40
2022-11-05T16:50:23.192Z,5.13
2022-11-05T16:52:50.880Z,3.03
2022-11-05T16:55:18.868Z,5.72
2022-11-05T16:57:47.469Z,3.13
2022-11-05T17:00:16.850Z,3.88
2022-11-05T17:02:45.320Z,4.07
2022-11-05T17:05:26.865Z,3.47
2022-11-05T17:07:55.058Z,3.63
2022-11-05T17:10:23.788Z,5.05
2022-11-05T17:12:51.498Z,2.05
2022-11-05T17:15:20.053Z,4.40
2022-11-05T17:17:47.898Z,5.03
2022-11-05T17:20:21.799Z,3.10
2022-11-05T17:22:49.175Z,2.00
2022-11-05T17:25:16.661Z,2.88
2022-11-05T17:27:44.723Z,4.40
2022-11-05T17:30:12.472Z,2.42
2022-11-05T17:32:39.910Z,1.98
2022-11-05T17:35:08.796Z,2.08
2022-11-05T17:37:36.534Z,3.08
2022-11-05T17:40:05.354Z,5.88
2022-11-05T17:42:32.748Z,14.10
2022-11-05T17:45:00.345Z,3.45
2022-11-05T17:47:27.976Z,4.15
2022-11-05T17:49:55.706Z,4.50
2022-11-05T17:52:23.140Z,2.95
2022-11-05T17:54:50.661Z,4.88
2022-11-05T17:57:18.060Z,8.10
2022-11-05T17:59:45.417Z,5.88
2022-11-05T18:02:13.394Z,6.65
2022-11-05T18:04:40.898Z,7.47
2022-11-05T18:07:08.937Z,8.00
2022-11-05T18:09:37.904Z,7.13
2022-11-05T18:12:05.453Z,3.63
2022-11-05T18:14:32.802Z,7.57
2022-11-05T18:17:03.266Z,7.32
2022-11-05T18:19:30.796Z,9.57
2022-11-05T18:21:58.222Z,7.47
2022-11-05T18:24:25.564Z,8.13
2022-11-05T18:26:53.046Z,6.68
2022-11-05T18:29:20.761Z,7.75
2022-11-05T18:31:48.254Z,5.65
2022-11-05T18:34:15.786Z,6.40
2022-11-05T18:36:45.039Z,5.93
2022-11-05T18:39:12.721Z,5.95
2022-11-05T18:41:40.117Z,6.85
2022-11-05T18:44:07.855Z,5.28
2022-11-05T18:46:57.260Z,7.13
2022-11-05T18:49:22.812Z,6.10
2022-11-05T18:51:50.365Z,7.70
2022-11-05T18:54:17.822Z,4.95
2022-11-05T18:56:45.926Z,4.20
2022-11-05T19:02:06.259Z,6.72
2022-11-05T19:04:35.546Z,8.88
2022-11-05T19:07:05.481Z,8.43
2022-11-05T19:09:34.169Z,6.63
2022-11-05T19:12:01.849Z,8.10
2022-11-05T19:14:30.377Z,7.10
2022-11-05T19:17:01.434Z,8.13
2022-11-05T19:19:29.528Z,7.30
2022-11-05T19:21:57.379Z,5.55
2022-11-05T19:24:24.839Z,7.20
2022-11-05T19:26:52.289Z,4.80
2022-11-05T19:29:20.496Z,4.90
2022-11-05T19:31:47.873Z,10.05
2022-11-05T19:34:15.463Z,5.28
2022-11-05T19:36:42.813Z,7.05
2022-11-05T19:39:11.952Z,6.63
2022-11-05T19:41:39.295Z,7.88
2022-11-05T19:44:07.048Z,11.52
2022-11-05T19:46:34.527Z,7.15
2022-11-05T19:49:02.519Z,8.57
2022-11-05T19:51:31.351Z,7.72
2022-11-05T19:54:00.104Z,7.78
2022-11-05T19:56:32.536Z,9.25
2022-11-05T19:59:00.413Z,8.05
2022-11-05T20:01:28.932Z,7.40
2022-11-05T20:03:57.435Z,10.05
2022-11-05T20:06:28.774Z,8.63
2022-11-05T20:11:49.979Z,10.52
2022-11-05T20:14:17.518Z,10.10
2022-11-05T20:16:46.280Z,11.20
2022-11-05T20:19:15.181Z,12.20
2022-11-05T20:21:42.492Z,10.63
2022-11-05T20:24:23.663Z,10.38
2022-11-05T20:26:52.061Z,16.42
2022-11-05T20:29:19.434Z,10.82
2022-11-05T20:31:46.790Z,13.73
2022-11-05T20:34:14.137Z,8.27
2022-11-05T20:36:41.661Z,8.93
2022-11-05T20:39:09.118Z,12.02
2022-11-05T20:41:36.444Z,9.82
2022-11-05T20:44:04.116Z,10.07
2022-11-05T20:46:32.948Z,9.80
2022-11-05T20:49:00.305Z,10.25
2022-11-05T20:51:27.649Z,12.15
2022-11-05T20:53:55.990Z,12.23
2022-11-05T20:56:24.871Z,11.77
2022-11-05T20:58:52.805Z,12.60
2022-11-05T21:01:21.041Z,8.93
2022-11-05T21:03:48.646Z,8.93
2022-11-05T21:06:16.570Z,10.15
2022-11-05T21:08:44.228Z,9.35
2022-11-05T21:11:11.786Z,11.63
2022-11-05T21:13:39.344Z,9.77
2022-11-05T21:16:08.088Z,10.07
2022-11-05T21:18:36.422Z,11.35
2022-11-05T21:21:07.912Z,13.48
2022-11-05T21:23:35.422Z,11.68
2022-11-05T21:26:06.452Z,14.25
2022-11-05T21:28:34.356Z,9.68
2022-11-05T21:31:02.683Z,13.00
2022-11-05T21:33:30.526Z,10.70
2022-11-05T21:35:57.866Z,10.82
2022-11-05T21:38:25.526Z,14.48
2022-11-05T21:40:54.858Z,12.07
2022-11-05T21:43:22.215Z,13.52
2022-11-05T21:45:49.695Z,11.57
2022-11-05T21:48:17.060Z,18.30
2022-11-05T21:51:03.074Z,12.90
2022-11-05T21:53:49.194Z,15.57
2022-11-05T21:56:38.851Z,12.60
2022-11-05T21:59:24.902Z,17.13
2022-11-05T22:02:01.842Z,13.38
2022-11-05T22:04:33.450Z,12.63
2022-11-05T22:07:00.759Z,11.68
2022-11-05T22:09:28.257Z,12.57
2022-11-05T22:11:55.983Z,10.60
2022-11-05T22:14:23.739Z,11.80
2022-11-05T22:16:51.177Z,12.90
2022-11-05T22:19:18.897Z,12.70
2022-11-05T22:21:46.433Z,11.15
2022-11-05T22:24:14.021Z,12.27
2022-11-05T22:26:45.206Z,11.90
2022-11-05T22:29:13.083Z,15.98
2022-11-05T22:31:40.582Z,12.32
2022-11-05T22:34:08.651Z,14.32
2022-11-05T22:36:36.264Z,12.18
2022-11-05T22:39:04.531Z,11.13
2022-11-05T22:41:32.431Z,9.65
2022-11-05T22:43:59.794Z,8.07
2022-11-05T22:46:27.690Z,9.07
2022-11-05T22:48:56.377Z,9.32
2022-11-05T22:51:25.247Z,11.05
2022-11-05T22:53:52.788Z,10.80
2022-11-05T22:56:21.995Z,9.13
2022-11-05T22:58:49.700Z,11.65
2022-11-05T23:01:17.543Z,8.68
2022-11-05T23:03:45.944Z,10.48
2022-11-05T23:06:33.428Z,7.47
2022-11-05T23:09:19.784Z,12.95
2022-11-05T23:11:48.870Z,8.60
2022-11-05T23:14:16.532Z,8.55
2022-11-05T23:17:03.061Z,10.20
2022-11-05T23:19:51.928Z,10.07
2022-11-05T23:22:45.733Z,11.48
2022-11-05T23:25:14.637Z,7.43
2022-11-05T23:27:42.441Z,11.82
2022-11-05T23:30:11.762Z,10.05
2022-11-05T23:32:39.184Z,10.90
2022-11-05T23:35:07.046Z,11.77
2022-11-05T23:37:53.486Z,9.35
2022-11-05T23:40:22.426Z,7.97
2022-11-05T23:43:08.969Z,8.73
2022-11-05T23:45:57.392Z,7.55
2022-11-05T23:48:24.746Z,10.68
2022-11-05T23:50:54.636Z,8.25
2022-11-05T23:53:22.239Z,7.95
2022-11-05T23:55:50.006Z,10.23
2022-11-05T23:58:17.685Z,10.88
